createdAt,value
2022-10-31T00:01:36.142Z,102080
2022-10-31T00:06:32.002Z,102070
2022-10-31T00:11:32.286Z,102070
2022-10-31T00:16:32.216Z,102070
2022-10-31T00:21:33.470Z,102070
2022-10-31T00:26:32.128Z,102070
2022-10-31T00:31:32.087Z,102070
2022-10-31T00:36:32.072Z,102080
2022-10-31T00:41:32.077Z,102090
2022-10-31T00:46:32.099Z,102100
2022-10-31T00:51:32.103Z,102090
2022-10-31T00:56:32.108Z,102090
2022-10-31T01:01:33.488Z,102080
2022-10-31T01:06:32.160Z,102080
2022-10-31T01:11:32.198Z,102080
2022-10-31T01:16:32.179Z,102080
2022-10-31T01:21:32.303Z,102070
2022-10-31T01:26:32.878Z,102070
2022-10-31T01:31:35.059Z,102050
2022-10-31T01:36:35.118Z,102050
2022-10-31T01:41:35.757Z,102050
2022-10-31T01:46:37.893Z,102050
2022-10-31T01:51:36.164Z,102050
2022-10-31T01:56:37.083Z,102050
2022-10-31T02:01:32.832Z,102060
2022-10-31T02:06:41.245Z,102050
2022-10-31T02:11:35.684Z,102050
2022-10-31T02:16:32.312Z,102050
2022-10-31T02:21:45.926Z,102050
2022-10-31T02:26:51.373Z,102050
2022-10-31T02:31:46.400Z,102050
2022-10-31T02:36:43.227Z,102050
2022-10-31T02:41:46.109Z,102050
2022-10-31T02:46:43.927Z,102040
2022-10-31T02:51:32.820Z,102050
2022-10-31T02:56:32.487Z,102050
2022-10-31T03:01:41.855Z,102050
2022-10-31T03:06:39.204Z,102050
2022-10-31T03:11:45.895Z,102050
2022-10-31T03:16:43.657Z,102050
2022-10-31T03:21:45.933Z,102060
2022-10-31T03:26:36.360Z,102060
2022-10-31T03:31:43.263Z,102060
2022-10-31T03:36:35.122Z,102060
2022-10-31T03:41:38.813Z,102060
2022-10-31T03:46:32.589Z,102060
2022-10-31T03:51:39.956Z,102060
2022-10-31T03:56:40.159Z,102050
2022-10-31T04:01:38.753Z,102050
2022-10-31T04:06:36.186Z,102050
2022-10-31T04:11:37.241Z,102050
2022-10-31T04:16:32.918Z,102050
2022-10-31T04:21:32.620Z,102050
2022-10-31T04:26:32.585Z,102050
2022-10-31T04:31:32.596Z,102040
2022-10-31T04:36:32.833Z,102040
2022-10-31T04:41:32.659Z,102040
2022-10-31T04:46:32.640Z,102050
2022-10-31T04:51:32.647Z,102050
2022-10-31T04:56:32.686Z,102050
2022-10-31T05:01:33.197Z,102050
2022-10-31T05:06:32.669Z,102040
2022-10-31T05:11:32.700Z,102040
2022-10-31T05:16:32.678Z,102040
2022-10-31T05:21:32.727Z,102030
2022-10-31T05:26:32.719Z,102030
2022-10-31T05:31:32.746Z,102040
2022-10-31T05:36:32.775Z,102030
2022-10-31T05:41:32.815Z,102030
2022-10-31T05:51:32.837Z,102020
2022-10-31T05:56:32.822Z,102030
2022-10-31T06:01:33.702Z,102020
2022-10-31T06:06:32.817Z,102020
2022-10-31T06:11:32.855Z,102020
2022-10-31T06:16:33.286Z,102020
2022-10-31T06:21:33.027Z,102020
2022-10-31T06:26:32.901Z,102020
2022-10-31T06:31:32.866Z,102020
2022-10-31T06:36:33.022Z,102020
2022-10-31T06:41:32.967Z,102020
2022-10-31T06:46:33.360Z,102030
2022-10-31T06:51:32.894Z,102020
2022-10-31T06:56:32.968Z,102020
2022-10-31T07:01:33.786Z,102030
2022-10-31T07:06:32.941Z,102020
2022-10-31T07:11:33.109Z,102020
2022-10-31T07:16:32.964Z,102020
2022-10-31T07:21:33.015Z,102020
2022-10-31T07:26:32.972Z,102020
2022-10-31T07:31:33.039Z,102030
2022-10-31T07:36:32.985Z,102030
2022-10-31T07:41:33.052Z,102030
2022-10-31T07:46:33.051Z,102030
2022-10-31T07:51:33.031Z,102030
2022-10-31T07:56:33.094Z,102040
2022-10-31T08:01:34.497Z,102040
2022-10-31T08:06:33.061Z,102040
2022-10-31T08:11:33.085Z,102040
2022-10-31T08:16:33.117Z,102040
2022-10-31T08:21:33.096Z,102050
2022-10-31T08:26:33.157Z,102040
2022-10-31T08:31:34.447Z,102030
2022-10-31T08:36:33.700Z,102040
2022-10-31T08:41:33.199Z,102030
2022-10-31T08:46:33.181Z,102020
2022-10-31T08:51:33.222Z,102020
2022-10-31T08:56:33.232Z,102010
2022-10-31T09:01:33.987Z,102020
2022-10-31T09:06:33.216Z,102010
2022-10-31T09:11:33.223Z,102000
2022-10-31T09:16:33.275Z,101990
2022-10-31T09:21:33.275Z,101980
2022-10-31T09:26:33.627Z,102000
2022-10-31T09:31:33.276Z,102000
2022-10-31T09:36:33.276Z,101990
2022-10-31T09:41:56.309Z,101990
2022-10-31T09:46:53.219Z,101980
2022-10-31T09:51:38.274Z,101970
2022-10-31T09:56:33.631Z,101970
2022-10-31T10:01:53.304Z,101960
2022-10-31T10:06:35.832Z,101940
2022-10-31T10:11:44.366Z,101950
2022-10-31T10:16:50.767Z,101960
2022-10-31T10:21:36.654Z,101940
2022-10-31T10:26:37.510Z,101940
2022-10-31T10:31:39.319Z,101930
2022-10-31T10:36:42.640Z,101910
2022-10-31T10:41:34.727Z,101910
2022-10-31T10:46:41.827Z,101900
2022-10-31T10:52:02.633Z,101860
2022-10-31T10:56:39.261Z,101870
2022-10-31T11:01:34.254Z,101860
2022-10-31T11:06:33.484Z,101880
2022-10-31T11:11:33.575Z,101880
2022-10-31T11:21:34.475Z,101860
2022-10-31T11:26:33.536Z,101840
2022-10-31T11:31:34.881Z,101830
2022-10-31T11:36:37.833Z,101830
2022-10-31T11:41:36.629Z,101810
2022-10-31T11:46:34.616Z,101790
2022-10-31T11:51:35.186Z,101780
2022-10-31T11:56:42.272Z,101760
2022-10-31T12:01:34.385Z,101750
2022-10-31T12:06:36.888Z,101730
2022-10-31T12:11:53.552Z,101730
2022-10-31T12:16:46.239Z,101710
2022-10-31T12:21:43.082Z,101700
2022-10-31T12:26:45.842Z,101680
2022-10-31T12:31:41.907Z,101660
2022-10-31T12:36:44.849Z,101650
2022-10-31T12:41:44.971Z,101640
2022-10-31T12:46:47.039Z,101630
2022-10-31T12:51:53.664Z,101630
2022-10-31T12:56:41.026Z,101630
2022-10-31T13:01:40.538Z,101610
2022-10-31T13:06:44.332Z,101600
2022-10-31T13:11:41.953Z,101590
2022-10-31T13:16:38.371Z,101580
2022-10-31T13:21:39.834Z,101570
2022-10-31T13:26:43.674Z,101550
2022-10-31T13:31:33.833Z,101550
2022-10-31T13:36:42.254Z,101530
2022-10-31T13:41:43.793Z,101520
2022-10-31T13:46:35.716Z,101520
2022-10-31T13:51:34.352Z,101510
2022-10-31T13:56:34.783Z,101510
2022-10-31T14:01:36.546Z,101510
2022-10-31T14:06:38.750Z,101500
2022-10-31T14:11:37.077Z,101490
2022-10-31T14:16:33.973Z,101480
2022-10-31T14:21:40.401Z,101470
2022-10-31T14:26:36.303Z,101450
2022-10-31T14:31:36.236Z,101440
2022-10-31T14:36:47.046Z,101440
2022-10-31T14:41:43.996Z,101440
2022-10-31T14:46:43.957Z,101430
2022-10-31T14:51:39.686Z,101430
2022-10-31T14:56:37.321Z,101420
2022-10-31T15:01:37.470Z,101410
2022-10-31T15:06:45.312Z,101400
2022-10-31T15:11:37.811Z,101400
2022-10-31T15:16:36.873Z,101380
2022-10-31T15:21:39.192Z,101380
2022-10-31T15:26:38.840Z,101380
2022-10-31T15:31:35.031Z,101350
2022-10-31T15:36:37.337Z,101350
2022-10-31T15:41:53.125Z,101340
2022-10-31T15:46:34.157Z,101330
2022-10-31T15:51:34.599Z,101320
2022-10-31T15:56:34.195Z,101320
2022-10-31T16:01:34.922Z,101320
2022-10-31T16:06:34.852Z,101310
2022-10-31T16:11:36.980Z,101320
2022-10-31T16:16:42.909Z,101310
2022-10-31T16:21:37.512Z,101310
2022-10-31T16:26:34.276Z,101310
2022-10-31T16:31:37.867Z,101310
2022-10-31T16:36:35.748Z,101290
2022-10-31T16:41:38.938Z,101290
2022-10-31T16:46:34.287Z,101280
2022-10-31T16:51:34.279Z,101270
2022-10-31T16:56:36.516Z,101260
2022-10-31T17:01:34.983Z,101250
2022-10-31T17:06:34.298Z,101260
2022-10-31T17:11:34.752Z,101250
2022-10-31T17:16:34.387Z,101250
2022-10-31T17:21:35.032Z,101240
2022-10-31T17:26:34.428Z,101240
2022-10-31T17:31:35.146Z,101230
2022-10-31T17:36:34.879Z,101220
2022-10-31T17:41:34.554Z,101220
2022-10-31T17:46:34.383Z,101220
2022-10-31T17:51:34.435Z,101210
2022-10-31T17:56:34.431Z,101190
2022-10-31T18:01:35.509Z,101180
2022-10-31T18:06:34.501Z,101160
2022-10-31T18:11:34.481Z,101160
2022-10-31T18:21:34.453Z,101180
2022-10-31T18:26:35.301Z,101180
2022-10-31T18:31:34.880Z,101170
2022-10-31T18:36:34.581Z,101160
2022-10-31T18:41:34.529Z,101160
2022-10-31T18:46:34.914Z,101140
2022-10-31T18:51:34.526Z,101140
2022-10-31T18:56:34.573Z,101150
2022-10-31T19:01:36.169Z,101140
2022-10-31T19:06:34.569Z,101150
2022-10-31T19:11:36.082Z,101140
2022-10-31T19:16:34.635Z,101140
2022-10-31T19:21:34.602Z,101140
2022-10-31T19:26:34.655Z,101140
2022-10-31T19:31:34.748Z,101130
2022-10-31T19:36:34.660Z,101110
2022-10-31T19:41:34.739Z,101110
2022-10-31T19:46:52.910Z,101110
2022-10-31T19:51:34.704Z,101110
2022-10-31T19:56:34.673Z,101110
2022-10-31T20:01:36.223Z,101110
2022-10-31T20:06:37.278Z,101100
2022-10-31T20:11:36.268Z,101090
2022-10-31T20:16:34.742Z,101090
2022-10-31T20:21:37.340Z,101090
2022-10-31T20:26:35.855Z,101070
2022-10-31T20:31:35.433Z,101070
2022-10-31T20:36:35.081Z,101070
2022-10-31T20:46:34.818Z,101060
2022-10-31T20:51:42.284Z,101050
2022-10-31T20:56:37.100Z,101050
2022-10-31T21:01:35.794Z,101040
2022-10-31T21:06:34.896Z,101040
2022-10-31T21:11:35.058Z,101030
2022-10-31T21:16:37.553Z,101020
2022-10-31T21:21:35.884Z,101020
2022-10-31T21:26:41.650Z,101020
2022-10-31T21:31:36.247Z,101010
2022-10-31T21:36:35.497Z,101000
2022-10-31T21:41:35.066Z,101000
2022-10-31T21:46:34.936Z,100990
2022-10-31T21:56:40.571Z,100970
2022-10-31T22:01:37.383Z,100960
2022-10-31T22:06:35.705Z,100970
2022-10-31T22:11:35.351Z,100970
2022-10-31T22:16:35.455Z,100970
2022-10-31T22:21:37.750Z,100970
2022-10-31T22:26:36.275Z,100970
2022-10-31T22:31:38.286Z,100970
2022-10-31T22:36:35.606Z,100970
2022-10-31T22:41:35.839Z,100950
2022-10-31T22:46:37.116Z,100960
2022-10-31T22:51:37.425Z,100940
2022-10-31T22:56:35.102Z,100930
2022-10-31T23:01:36.617Z,100920
2022-10-31T23:06:35.953Z,100910
2022-10-31T23:11:38.239Z,100910
2022-10-31T23:16:39.611Z,100900
2022-10-31T23:21:37.342Z,100900
2022-10-31T23:26:35.163Z,100900
2022-10-31T23:31:35.205Z,100910
2022-10-31T23:36:35.438Z,100900
2022-10-31T23:41:35.179Z,100890
2022-10-31T23:46:35.291Z,100880
2022-10-31T23:51:35.334Z,100860
2022-10-31T23:56:35.411Z,100860
